Time;durP1;ratioP1;P1;durP2;ratioP2;P2;SDS_P1;SDS_P2;PMS_P1;PMS_P2;Temp;Humidity;BMP_temperature;BMP_pressure;BME280_temperature;BME280_humidity;BME280_pressure;Samples;Min_cycle;Max_cycle;Signal;HPM_P1;HPM_P2
2022/04/05 00:00:50;;;;;;;38.00;18.33;;;;;;;9.25;100.00;100428.47;5064440;28;20025;-61
2022/04/05 00:03:15;;;;;;;35.75;17.00;;;;;;;9.24;100.00;100439.69;5064757;28;20020;-62
2022/04/05 00:05:40;;;;;;;33.72;18.52;;;;;;;9.26;100.00;100443.84;5083181;28;20051;-62
2022/04/05 00:08:06;;;;;;;30.95;18.08;;;;;;;9.26;100.00;100438.38;5084036;28;20086;-61
2022/04/05 00:10:31;;;;;;;33.08;17.98;;;;;;;9.29;100.00;100443.41;5084466;28;20024;-61
2022/04/05 00:12:58;;;;;;;30.10;16.42;;;;;;;9.28;100.00;100440.91;5082983;28;20077;-62
2022/04/05 00:15:23;;;;;;;25.75;16.05;;;;;;;9.29;100.00;100445.31;5084162;28;20067;-62
2022/04/05 00:17:48;;;;;;;32.50;16.73;;;;;;;9.29;100.00;100448.03;5082752;28;20103;-61
2022/04/05 00:20:14;;;;;;;34.47;17.60;;;;;;;9.33;100.00;100447.34;5083168;28;20069;-61
2022/04/05 00:22:39;;;;;;;32.05;16.73;;;;;;;9.32;100.00;100453.88;5082948;28;20131;-61
2022/04/05 00:25:05;;;;;;;32.72;17.10;;;;;;;9.28;100.00;100449.94;5084155;28;20069;-61
2022/04/05 00:27:30;;;;;;;29.58;16.70;;;;;;;9.31;100.00;100451.38;5084367;28;20036;-61
2022/04/05 00:29:55;;;;;;;32.03;16.30;;;;;;;9.27;100.00;100461.13;5083950;28;20096;-62
2022/04/05 00:32:21;;;;;;;28.42;15.90;;;;;;;9.26;100.00;100456.72;5082747;28;20059;-61
2022/04/05 00:34:46;;;;;;;32.80;16.98;;;;;;;9.21;100.00;100454.66;5081739;28;20450;-61
2022/04/05 00:37:11;;;;;;;33.08;16.80;;;;;;;9.18;100.00;100455.16;5080177;28;20044;-62
2022/04/05 00:39:37;;;;;;;28.15;15.70;;;;;;;9.20;100.00;100463.97;5084366;28;20024;-61
2022/04/05 00:42:02;;;;;;;30.25;16.50;;;;;;;9.18;100.00;100460.63;5069162;28;20036;-62
2022/04/05 00:44:28;;;;;;;33.45;17.35;;;;;;;9.16;100.00;100461.91;5070151;28;20028;-61
2022/04/05 00:46:54;;;;;;;30.63;16.63;;;;;;;9.13;100.00;100462.41;5083464;28;20055;-62
2022/04/05 00:49:29;;;;;;;28.20;16.10;;;;;;;9.12;100.00;100456.03;5082989;28;20178;-62
2022/04/05 00:51:54;;;;;;;30.33;15.90;;;;;;;9.13;100.00;100452.25;5081938;28;20111;-61
2022/04/05 00:54:23;;;;;;;29.88;17.55;;;;;;;9.11;100.00;100454.38;5083152;28;20506;-61
2022/04/05 00:56:49;;;;;;;32.40;17.70;;;;;;;9.10;100.00;100452.72;5082698;28;20038;-62
2022/04/05 00:59:18;;;;;;;32.97;17.33;;;;;;;9.12;100.00;100461.53;5078908;28;20019;-61
2022/04/05 01:01:45;;;;;;;33.10;18.13;;;;;;;9.09;100.00;100456.53;5082107;28;20043;-62
2022/04/05 01:04:11;;;;;;;28.17;16.55;;;;;;;9.10;100.00;100460.94;5081785;28;20036;-62
2022/04/05 01:06:44;;;;;;;36.70;17.23;;;;;;;9.11;100.00;100459.88;5083368;28;20111;-61
2022/04/05 01:09:10;;;;;;;32.92;18.05;;;;;;;9.09;100.00;100462.00;5083239;28;20479;-61
2022/04/05 01:11:36;;;;;;;29.15;18.50;;;;;;;9.10;100.00;100466.41;5082163;28;20020;-61
2022/04/05 01:14:01;;;;;;;29.83;17.90;;;;;;;9.07;100.00;100464.13;5083184;28;20119;-61
2022/04/05 01:16:27;;;;;;;34.33;18.98;;;;;;;9.07;100.00;100458.66;5082551;28;20724;-61
2022/04/05 01:18:53;;;;;;;30.67;18.42;;;;;;;9.04;100.00;100464.59;5082370;28;20043;-62
2022/04/05 01:21:18;;;;;;;30.15;17.83;;;;;;;9.07;100.00;100462.25;5081031;28;20036;-62
2022/04/05 01:24:12;;;;;;;30.00;18.00;;;;;;;9.11;100.00;100465.34;5082018;28;20024;-61
2022/04/05 01:26:40;;;;;;;29.85;18.63;;;;;;;9.07;100.00;100461.38;5063136;28;20021;-61
2022/04/05 01:29:05;;;;;;;26.45;18.65;;;;;;;9.10;100.00;100464.50;5062112;28;20074;-61
2022/04/05 01:31:36;;;;;;;28.95;17.83;;;;;;;9.06;100.00;100474.25;5078510;28;20036;-61
2022/04/05 01:34:01;;;;;;;26.75;18.13;;;;;;;9.09;100.00;100472.97;5081899;28;20052;-61
2022/04/05 01:36:26;;;;;;;31.80;20.23;;;;;;;9.07;100.00;100472.34;5082537;28;20143;-61
2022/04/05 01:38:51;;;;;;;30.02;19.42;;;;;;;9.06;100.00;100477.00;5082431;28;20027;-61
2022/04/05 01:41:17;;;;;;;31.63;19.13;;;;;;;9.05;100.00;100478.06;5067707;28;20109;-62
2022/04/05 01:43:42;;;;;;;26.83;15.88;;;;;;;9.19;100.00;100473.25;5082717;28;20394;-62
2022/04/05 01:46:07;;;;;;;27.67;18.60;;;;;;;9.06;100.00;100478.88;5068455;28;20060;-61
2022/04/05 01:48:32;;;;;;;30.77;18.52;;;;;;;9.03;100.00;100473.88;5076813;28;20025;-61
2022/04/05 01:50:58;;;;;;;28.90;17.77;;;;;;;9.00;100.00;100472.44;5074364;28;20568;-61
2022/04/05 01:53:23;;;;;;;29.85;17.77;;;;;;;9.02;100.00;100472.19;5080863;28;20057;-61
2022/04/05 01:55:48;;;;;;;30.98;18.70;;;;;;;9.01;100.00;100476.84;5082696;28;20020;-61
2022/04/05 01:58:14;;;;;;;30.33;19.02;;;;;;;8.98;100.00;100471.00;5080216;28;20394;-61
2022/04/05 02:00:39;;;;;;;34.10;18.85;;;;;;;8.98;100.00;100476.47;5072445;28;20479;-61
2022/04/05 02:03:04;;;;;;;32.75;20.15;;;;;;;8.96;100.00;100473.94;5081193;28;20471;-61
2022/04/05 02:05:29;;;;;;;32.75;19.80;;;;;;;8.95;100.00;100479.66;5082399;28;20052;-61
2022/04/05 02:07:55;;;;;;;33.83;20.42;;;;;;;8.94;100.00;100478.00;5082485;28;20062;-63
2022/04/05 02:10:20;;;;;;;36.08;21.20;;;;;;;8.93;100.00;100479.06;5081361;28;20036;-62
2022/04/05 02:12:45;;;;;;;37.00;21.50;;;;;;;8.92;100.00;100482.84;5066412;28;20487;-62
2022/04/05 02:15:10;;;;;;;37.72;22.58;;;;;;;8.91;100.00;100483.91;5070112;28;20105;-63
2022/04/05 02:17:36;;;;;;;38.92;22.92;;;;;;;8.91;100.00;100482.03;5086379;28;20390;-62
2022/04/05 02:20:02;;;;;;;35.60;21.98;;;;;;;8.92;100.00;100471.91;5084800;28;20062;-61
2022/04/05 02:22:28;;;;;;;36.75;21.73;;;;;;;8.90;100.00;100471.31;5085983;28;20020;-61
2022/04/05 02:24:53;;;;;;;38.78;22.10;;;;;;;8.89;100.00;100475.94;5086134;28;20047;-61
2022/04/05 02:27:18;;;;;;;40.95;21.67;;;;;;;8.90;100.00;100479.53;5085978;28;20048;-61
2022/04/05 02:29:44;;;;;;;40.85;21.17;;;;;;;8.90;100.00;100485.00;5085962;28;20619;-62
2022/04/05 02:32:09;;;;;;;35.38;20.42;;;;;;;8.91;100.00;100481.19;5085970;28;20044;-62
2022/04/05 02:34:34;;;;;;;36.30;20.83;;;;;;;8.88;100.00;100481.66;5085673;28;20036;-61
2022/04/05 02:37:00;;;;;;;37.33;20.67;;;;;;;8.87;100.00;100485.44;5085419;28;20300;-61
2022/04/05 02:39:25;;;;;;;35.33;19.15;;;;;;;8.88;100.00;100481.66;5086263;28;20718;-62
2022/04/05 02:41:50;;;;;;;34.03;17.98;;;;;;;8.87;100.00;100480.81;5073067;28;20112;-61
2022/04/05 02:44:16;;;;;;;30.73;18.60;;;;;;;8.88;100.00;100487.13;5065685;28;20024;-62
2022/04/05 02:46:41;;;;;;;31.05;18.90;;;;;;;8.86;100.00;100484.59;5065725;28;20048;-62
2022/04/05 02:49:06;;;;;;;29.15;18.80;;;;;;;8.85;100.00;100477.47;5065015;28;20502;-62
2022/04/05 02:51:31;;;;;;;29.83;18.17;;;;;;;8.86;100.00;100484.59;5082038;28;20050;-62
2022/04/05 02:53:57;;;;;;;29.38;16.83;;;;;;;8.84;100.00;100481.28;5085783;28;20078;-61
2022/04/05 02:56:22;;;;;;;27.75;17.67;;;;;;;8.85;100.00;100477.47;5085802;28;20024;-62
2022/04/05 02:58:48;;;;;;;32.00;18.02;;;;;;;8.83;100.00;100472.22;5085445;28;20040;-61
2022/04/05 03:01:13;;;;;;;28.73;17.20;;;;;;;8.82;100.00;100473.28;5070836;28;20032;-62
2022/04/05 03:03:39;;;;;;;30.25;17.48;;;;;;;8.82;100.00;100473.28;5064991;28;20025;-61
2022/04/05 03:06:04;;;;;;;29.27;17.27;;;;;;;8.83;100.00;100469.47;5069271;28;20029;-61
2022/04/05 03:08:29;;;;;;;29.20;17.02;;;;;;;8.82;100.00;100467.81;5064630;28;20313;-62
2022/04/05 03:10:54;;;;;;;29.70;18.40;;;;;;;8.83;100.00;100474.97;5076319;28;20027;-62
2022/04/05 03:13:20;;;;;;;33.78;19.30;;;;;;;8.81;100.00;100470.75;5084822;28;20036;-61
2022/04/05 03:15:46;;;;;;;31.73;19.50;;;;;;;8.82;100.00;100480.69;5085728;28;20239;-62
2022/04/05 03:18:11;;;;;;;36.00;18.90;;;;;;;8.79;100.00;100473.75;5084250;28;20024;-62
2022/04/05 03:20:37;;;;;;;32.17;18.10;;;;;;;8.79;100.00;100483.84;5075069;28;20025;-61
2022/04/05 03:23:04;;;;;;;29.40;18.08;;;;;;;8.81;100.00;100481.72;5082781;28;20064;-62
2022/04/05 03:25:30;;;;;;;24.60;15.65;;;;;;;8.79;100.00;100481.94;5084736;28;20035;-61
2022/04/05 03:27:55;;;;;;;26.70;16.23;;;;;;;8.80;100.00;100483.63;5084001;28;20024;-61
2022/04/05 03:30:22;;;;;;;26.00;15.77;;;;;;;8.83;100.00;100488.66;5084880;28;20064;-61
2022/04/05 03:32:48;;;;;;;26.25;15.45;;;;;;;8.80;100.00;100477.31;5083631;28;20032;-61
2022/04/05 03:35:14;;;;;;;26.10;15.80;;;;;;;8.80;100.00;100482.78;5084968;28;20025;-62
2022/04/05 03:37:39;;;;;;;27.42;15.43;;;;;;;8.79;100.00;100473.75;5083582;28;20036;-61
2022/04/05 03:40:05;;;;;;;25.42;16.10;;;;;;;8.83;100.00;100474.13;5085030;28;20024;-62
2022/04/05 03:42:31;;;;;;;28.70;16.05;;;;;;;8.80;100.00;100472.66;5083967;28;20028;-61
2022/04/05 03:44:57;;;;;;;24.05;15.10;;;;;;;8.87;100.00;100474.47;5085607;28;20032;-61
2022/04/05 03:47:23;;;;;;;26.65;16.73;;;;;;;8.84;100.00;100476.63;5081709;28;20085;-62
2022/04/05 03:49:48;;;;;;;25.67;16.30;;;;;;;8.81;100.00;100473.50;5065428;28;20749;-61
2022/04/05 03:52:13;;;;;;;28.08;17.75;;;;;;;8.83;100.00;100474.97;5063235;28;20101;-62
2022/04/05 03:54:39;;;;;;;26.60;17.73;;;;;;;8.81;100.00;100468.84;5064874;28;20118;-62
2022/04/05 03:57:04;;;;;;;29.85;18.60;;;;;;;8.82;100.00;100477.94;5064359;28;20029;-61
2022/04/05 03:59:30;;;;;;;31.45;19.15;;;;;;;8.81;100.00;100466.13;5082629;28;20111;-61
2022/04/05 04:01:55;;;;;;;30.63;18.67;;;;;;;8.82;100.00;100466.97;5082136;28;20032;-61
2022/04/05 04:04:20;;;;;;;31.65;18.92;;;;;;;8.82;100.00;100470.56;5063226;28;20021;-62
2022/04/05 04:06:46;;;;;;;29.15;18.88;;;;;;;8.88;100.00;100467.97;5067465;28;20111;-61
2022/04/05 04:09:14;;;;;;;28.10;17.42;;;;;;;8.89;100.00;100473.22;5084321;28;20082;-62
2022/04/05 04:11:42;;;;;;;31.77;19.60;;;;;;;8.85;100.00;100466.50;5085162;28;20024;-61
2022/04/05 04:14:08;;;;;;;31.52;18.63;;;;;;;8.82;100.00;100462.34;5084072;28;20560;-61
2022/04/05 04:16:33;;;;;;;32.15;19.02;;;;;;;8.83;100.00;100472.22;5080405;28;20024;-61
2022/04/05 04:18:58;;;;;;;28.77;18.33;;;;;;;8.84;100.00;100464.84;5062896;28;20029;-64
2022/04/05 04:21:24;;;;;;;27.80;18.02;;;;;;;8.83;100.00;100466.75;5063244;28;20531;-62
2022/04/05 04:23:49;;;;;;;30.73;17.90;;;;;;;8.88;100.00;100470.72;5063593;28;20032;-62
2022/04/05 04:26:14;;;;;;;31.00;18.13;;;;;;;8.86;100.00;100461.88;5063317;28;20029;-62
2022/04/05 04:28:39;;;;;;;29.85;17.42;;;;;;;8.82;100.00;100459.59;5080953;28;20023;-62
2022/04/05 04:31:05;;;;;;;29.92;17.95;;;;;;;8.81;100.00;100471.59;5083782;28;20028;-62
2022/04/05 04:33:30;;;;;;;31.88;16.70;;;;;;;8.82;100.00;100467.81;5082729;28;20516;-62
2022/04/05 04:35:55;;;;;;;28.73;17.02;;;;;;;8.84;100.00;100468.41;5082804;28;20028;-62
2022/04/05 04:38:21;;;;;;;27.15;16.83;;;;;;;8.85;100.00;100471.97;5082695;28;20082;-62
2022/04/05 04:40:50;;;;;;;25.02;15.43;;;;;;;8.90;100.00;100472.13;5082243;28;20082;-62
2022/04/05 04:43:17;;;;;;;27.98;16.40;;;;;;;8.86;100.00;100472.81;5081915;28;20036;-61
2022/04/05 04:45:43;;;;;;;25.60;15.65;;;;;;;8.84;100.00;100464.84;5082802;28;20020;-62
2022/04/05 04:48:08;;;;;;;23.92;15.15;;;;;;;8.85;100.00;100471.97;5065677;28;20035;-61
2022/04/05 04:50:33;;;;;;;28.80;15.88;;;;;;;8.83;100.00;100468.66;5063070;28;20029;-61
2022/04/05 04:52:58;;;;;;;26.02;16.40;;;;;;;8.83;100.00;100468.66;5087006;28;20420;-63
2022/04/05 04:55:25;;;;;;;24.17;14.68;;;;;;;8.81;100.00;100477.06;5083541;28;20045;-61
2022/04/05 04:57:51;;;;;;;23.85;13.93;;;;;;;8.88;100.00;100476.19;5088502;28;20848;-62
2022/04/05 05:00:17;;;;;;;24.58;14.60;;;;;;;8.87;100.00;100479.97;5095574;28;20303;-61
2022/04/05 05:02:51;;;;;;;28.73;15.82;;;;;;;8.86;100.00;100468.19;5079413;28;20028;-62
2022/04/05 05:05:17;;;;;;;25.55;15.98;;;;;;;8.82;100.00;100473.28;5082123;28;20136;-61
2022/04/05 05:07:44;;;;;;;23.77;15.13;;;;;;;8.83;100.00;100485.09;5078678;28;20112;-62
2022/04/05 05:10:11;;;;;;;25.45;15.52;;;;;;;8.83;100.00;100476.88;5077000;28;20394;-61
2022/04/05 05:12:37;;;;;;;27.63;15.77;;;;;;;8.82;100.00;100478.78;5083563;28;20020;-62
2022/04/05 05:15:02;;;;;;;28.02;15.48;;;;;;;8.92;100.00;100483.72;5081124;28;20036;-61
2022/04/05 05:17:28;;;;;;;25.20;15.85;;;;;;;8.86;100.00;100484.59;5081623;28;20047;-62
2022/04/05 05:19:54;;;;;;;29.70;16.33;;;;;;;8.87;100.00;100488.19;5083125;28;20052;-61
2022/04/05 05:22:20;;;;;;;27.35;16.13;;;;;;;8.89;100.00;100483.31;5081819;28;20032;-61
2022/04/05 05:24:45;;;;;;;27.92;16.40;;;;;;;8.82;100.00;100489.72;5082242;28;20024;-61
2022/04/05 05:27:10;;;;;;;28.25;16.50;;;;;;;8.84;100.00;100486.75;5080686;28;20035;-63
2022/04/05 05:29:35;;;;;;;30.55;16.85;;;;;;;8.86;100.00;100487.34;5082674;28;20378;-62
2022/04/05 05:32:01;;;;;;;26.77;16.10;;;;;;;8.84;100.00;100481.28;5082510;28;20581;-62
2022/04/05 05:34:26;;;;;;;27.08;16.45;;;;;;;8.83;100.00;100488.66;5081097;28;20092;-62
2022/04/05 05:36:51;;;;;;;26.30;16.40;;;;;;;8.89;100.00;100492.38;5071583;28;20071;-62
2022/04/05 05:39:16;;;;;;;24.60;15.65;;;;;;;8.87;100.00;100490.91;5062096;28;20032;-61
2022/04/05 05:41:42;;;;;;;26.48;16.20;;;;;;;8.87;100.00;100488.19;5061934;28;20020;-62
2022/04/05 05:44:07;;;;;;;25.10;16.17;;;;;;;8.84;100.00;100490.31;5062506;28;20043;-61
2022/04/05 05:46:32;;;;;;;23.40;15.20;;;;;;;8.90;100.00;100498.69;5071908;28;20055;-62
2022/04/05 05:48:58;;;;;;;23.80;15.23;;;;;;;8.87;100.00;100501.88;5102194;28;20039;-61
2022/04/05 05:51:23;;;;;;;26.48;16.20;;;;;;;8.88;100.00;100501.66;5086974;28;20223;-62
2022/04/05 05:53:48;;;;;;;24.88;15.20;;;;;;;8.87;100.00;100501.88;5081256;28;20024;-62
2022/04/05 05:56:14;;;;;;;26.20;15.73;;;;;;;8.90;100.00;100504.16;5082064;28;20844;-62
2022/04/05 05:58:40;;;;;;;22.55;14.77;;;;;;;8.89;100.00;100499.75;5082675;28;20050;-61
2022/04/05 06:01:06;;;;;;;24.10;15.05;;;;;;;8.94;100.00;100499.91;5091017;28;20025;-61
2022/04/05 06:03:31;;;;;;;28.48;16.00;;;;;;;8.90;100.00;100501.44;5080055;28;20042;-61
2022/04/05 06:05:56;;;;;;;28.83;17.00;;;;;;;8.92;100.00;100508.38;5062197;28;20117;-62
2022/04/05 06:08:22;;;;;;;25.77;16.85;;;;;;;8.98;100.00;100504.72;5061328;28;20057;-61
2022/04/05 06:10:47;;;;;;;25.45;16.48;;;;;;;8.94;100.00;100510.88;5099176;28;20020;-62
2022/04/05 06:13:12;;;;;;;28.92;17.77;;;;;;;8.97;100.00;100510.41;5061498;28;20024;-62
2022/04/05 06:15:37;;;;;;;28.17;16.17;;;;;;;8.97;100.00;100504.91;5062458;28;20547;-61
2022/04/05 06:18:03;;;;;;;28.38;16.48;;;;;;;8.98;100.00;100520.31;5072301;28;20039;-62
2022/04/05 06:20:28;;;;;;;29.23;17.52;;;;;;;9.00;100.00;100515.44;5101188;28;20102;-62
2022/04/05 06:22:58;;;;;;;25.38;15.57;;;;;;;9.00;100.00;100513.53;5081519;28;20560;-62
2022/04/05 06:25:29;;;;;;;27.55;16.77;;;;;;;9.03;100.00;100520.47;5081757;28;20496;-61
2022/04/05 06:27:56;;;;;;;31.35;15.68;;;;;;;9.04;100.00;100519.38;5095958;28;20035;-62
2022/04/05 06:30:22;;;;;;;24.85;15.38;;;;;;;9.12;100.00;100520.97;5084437;28;20116;-62
2022/04/05 06:32:47;;;;;;;27.55;15.68;;;;;;;9.12;100.00;100527.28;5071112;28;20116;-62
2022/04/05 06:35:13;;;;;;;26.42;15.30;;;;;;;9.16;100.00;100525.75;5061996;28;20373;-62
2022/04/05 06:37:43;;;;;;;20.13;12.32;;;;;;;9.23;100.00;100533.94;5061988;28;20055;-62
2022/04/05 06:40:09;;;;;;;24.20;14.57;;;;;;;9.23;100.00;100526.53;5067715;28;20032;-62
2022/04/05 06:42:35;;;;;;;20.25;13.10;;;;;;;9.28;100.00;100525.84;5077476;28;20040;-62
2022/04/05 06:45:00;;;;;;;23.50;14.27;;;;;;;9.29;100.00;100533.84;5081294;28;20028;-62
2022/04/05 06:47:26;;;;;;;23.67;14.57;;;;;;;9.37;100.00;100527.19;5081172;28;20017;-62
2022/04/05 06:49:51;;;;;;;25.90;14.00;;;;;;;9.35;100.00;100532.06;5072129;28;20058;-62
2022/04/05 06:52:16;;;;;;;23.05;13.45;;;;;;;9.35;100.00;100537.56;5062495;28;20086;-63
2022/04/05 06:54:42;;;;;;;24.63;14.35;;;;;;;9.35;100.00;100545.78;5062776;28;20028;-63
2022/04/05 06:57:09;;;;;;;21.83;13.00;;;;;;;9.37;100.00;100549.09;5068111;28;20074;-62
2022/04/05 06:59:34;;;;;;;22.33;13.27;;;;;;;9.35;100.00;100546.59;5070513;28;20462;-62
2022/04/05 07:01:59;;;;;;;22.83;13.93;;;;;;;9.31;100.00;100536.34;5080450;28;20375;-63
2022/04/05 07:04:25;;;;;;;22.92;13.23;;;;;;;9.32;100.00;100543.47;5082736;28;20028;-62
2022/04/05 07:06:50;;;;;;;20.75;12.98;;;;;;;9.33;100.00;100546.00;5063944;28;20081;-62
2022/04/05 07:09:15;;;;;;;19.50;12.43;;;;;;;9.35;100.00;100549.34;5064861;28;20036;-62
2022/04/05 07:11:40;;;;;;;21.10;12.63;;;;;;;9.38;100.00;100547.19;5066796;28;20510;-69
2022/04/05 07:14:06;;;;;;;24.42;14.15;;;;;;;9.38;100.00;100547.19;5071806;28;20020;-63
2022/04/05 07:16:31;;;;;;;22.40;13.50;;;;;;;9.39;100.00;100554.38;5069591;28;20104;-62
2022/04/05 07:18:56;;;;;;;23.75;13.07;;;;;;;9.42;100.00;100548.41;5072836;28;20033;-62
2022/04/05 07:21:22;;;;;;;19.35;12.02;;;;;;;9.51;100.00;100558.00;5070148;28;20403;-62
2022/04/05 07:23:48;;;;;;;18.15;11.75;;;;;;;9.45;100.00;100546.06;5074291;28;20059;-62
2022/04/05 07:26:13;;;;;;;18.08;11.82;;;;;;;9.46;100.00;100546.91;5072141;28;20024;-63
2022/04/05 07:28:38;;;;;;;26.02;12.85;;;;;;;9.47;100.00;100545.81;5074265;28;20055;-62
2022/04/05 07:31:04;;;;;;;18.75;11.07;;;;;;;9.55;100.00;100542.78;5074314;28;20078;-62
2022/04/05 07:33:29;;;;;;;21.15;12.20;;;;;;;9.60;100.00;100542.91;5077799;28;20028;-62
2022/04/05 07:35:55;;;;;;;20.02;11.75;;;;;;;9.65;100.00;100537.56;5075092;28;20093;-62
2022/04/05 07:38:20;;;;;;;19.75;11.45;;;;;;;9.71;100.00;100533.06;5076151;28;20028;-63
2022/04/05 07:40:48;;;;;;;21.17;11.70;;;;;;;9.67;100.00;100546.41;5077379;28;20020;-62
2022/04/05 07:43:19;;;;;;;21.88;12.02;;;;;;;9.68;100.00;100539.00;5079413;28;21052;-62
2022/04/05 07:45:48;;;;;;;19.83;11.70;;;;;;;9.75;100.00;100537.03;5076204;28;20467;-62
2022/04/05 07:48:13;;;;;;;18.77;11.27;;;;;;;9.79;100.00;100539.06;5077539;28;20040;-63
2022/04/05 07:50:39;;;;;;;18.23;11.38;;;;;;;9.77;100.00;100543.94;5083374;28;20023;-62
2022/04/05 07:53:04;;;;;;;17.67;10.43;;;;;;;9.68;100.00;100547.22;5074537;28;20020;-62
2022/04/05 07:55:29;;;;;;;18.70;11.18;;;;;;;9.65;100.00;100544.97;5063837;28;20165;-62
2022/04/05 07:57:54;;;;;;;21.02;12.13;;;;;;;9.59;100.00;100544.81;5066945;28;20075;-62
2022/04/05 08:00:22;;;;;;;17.80;10.32;;;;;;;9.63;100.00;100542.47;5065374;28;20029;-62
2022/04/05 08:02:47;;;;;;;17.33;11.07;;;;;;;9.69;100.00;100549.75;5069710;28;20033;-63
2022/04/05 08:05:13;;;;;;;20.10;11.77;;;;;;;9.69;100.00;100546.19;5063082;28;20364;-62
2022/04/05 08:07:38;;;;;;;20.42;11.68;;;;;;;9.72;100.00;100548.44;5076617;28;20028;-62
2022/04/05 08:10:04;;;;;;;18.27;11.00;;;;;;;9.74;100.00;100547.16;5083311;28;20058;-62
2022/04/05 08:12:37;;;;;;;18.90;10.55;;;;;;;9.83;100.00;100554.00;5082138;28;20084;-63
2022/04/05 08:15:03;;;;;;;19.25;10.95;;;;;;;9.81;100.00;100556.13;5079932;28;20123;-62
2022/04/05 08:17:28;;;;;;;18.20;10.70;;;;;;;9.83;100.00;100551.25;5068706;28;20514;-62
2022/04/05 08:19:53;;;;;;;17.48;10.18;;;;;;;9.84;100.00;100550.19;5074063;28;20032;-62
2022/04/05 08:22:18;;;;;;;18.27;10.15;;;;;;;9.92;100.00;100559.13;5077064;28;20034;-62
2022/04/05 08:24:44;;;;;;;18.42;10.98;;;;;;;9.82;100.00;100557.78;5073416;28;21749;-62
2022/04/05 08:27:09;;;;;;;15.45;10.32;;;;;;;9.82;100.00;100551.47;5073554;28;20077;-62
2022/04/05 08:29:39;;;;;;;18.33;11.50;;;;;;;9.86;100.00;100560.91;5075232;28;20020;-62
2022/04/05 08:32:05;;;;;;;19.35;12.02;;;;;;;9.90;100.00;100566.78;5080212;28;20141;-62
2022/04/05 08:34:31;;;;;;;23.17;13.35;;;;;;;9.93;100.00;100566.28;5078947;28;20078;-63
2022/04/05 08:36:57;;;;;;;23.48;11.38;;;;;;;10.00;100.00;100572.53;5079389;28;20177;-62
2022/04/05 08:39:22;;;;;;;17.80;10.23;;;;;;;10.12;100.00;100559.66;5079630;28;20114;-62
2022/04/05 08:41:49;;;;;;;17.42;10.45;;;;;;;10.19;100.00;100565.91;5081192;28;20119;-62
2022/04/05 08:44:16;;;;;;;23.20;13.07;;;;;;;10.19;100.00;100573.28;5074315;28;20716;-62
2022/04/05 08:46:42;;;;;;;16.85;9.57;;;;;;;10.19;100.00;100571.41;5068916;28;20035;-63
2022/04/05 08:49:09;;;;;;;20.55;10.75;;;;;;;10.11;100.00;100575.28;5073270;28;20375;-62
2022/04/05 08:51:34;;;;;;;19.65;12.80;;;;;;;10.06;100.00;100580.66;5075796;28;20036;-62
2022/04/05 08:53:59;;;;;;;20.05;11.82;;;;;;;10.00;100.00;100572.53;5082203;28;20239;-62
2022/04/05 08:56:30;;;;;;;20.33;11.10;;;;;;;9.99;100.00;100577.19;5082548;28;20024;-62
2022/04/05 08:58:56;;;;;;;16.50;11.70;;;;;;;9.96;100.00;100576.81;5082604;28;20382;-62
2022/04/05 09:01:22;;;;;;;17.40;10.45;;;;;;;9.86;100.00;100574.63;5080745;28;20028;-62
2022/04/05 09:03:47;;;;;;;17.15;10.13;;;;;;;9.85;100.00;100579.28;5081809;28;20035;-62
2022/04/05 09:06:30;;;;;;;22.95;15.40;;;;;;;9.93;100.00;100577.25;5081725;28;20089;-62
2022/04/05 09:09:16;;;;;;;18.15;11.00;;;;;;;10.09;100.00;100582.09;5082507;28;20020;-62
2022/04/05 09:11:47;;;;;;;18.88;13.88;;;;;;;10.15;100.00;100581.16;5082016;28;20341;-62
2022/04/05 09:14:13;;;;;;;19.50;13.55;;;;;;;10.17;100.00;100576.25;5064890;28;20501;-62
2022/04/05 09:16:38;;;;;;;17.95;10.50;;;;;;;10.17;100.00;100583.66;5065242;28;20074;-62
2022/04/05 09:19:12;;;;;;;18.13;9.43;;;;;;;10.20;100.00;100583.22;5061357;28;20479;-62
2022/04/05 09:21:54;;;;;;;15.65;10.10;;;;;;;10.21;100.00;100576.63;5062171;28;20112;-62
2022/04/05 09:24:20;;;;;;;18.17;11.02;;;;;;;10.16;100.00;100582.00;5066609;28;20028;-62
2022/04/05 09:26:46;;;;;;;18.98;10.73;;;;;;;10.11;100.00;100585.44;5082280;28;20045;-62
2022/04/05 09:29:12;;;;;;;18.08;10.60;;;;;;;10.05;100.00;100587.22;5082353;28;20032;-63
2022/04/05 09:31:48;;;;;;;15.93;10.10;;;;;;;10.03;100.00;100589.34;5074991;28;20028;-62
2022/04/05 09:34:21;;;;;;;18.30;9.45;;;;;;;10.07;100.00;100593.28;5070866;28;20143;-63
2022/04/05 09:36:48;;;;;;;14.43;10.35;;;;;;;10.10;100.00;100581.03;5081953;28;20036;-62
2022/04/05 09:39:17;;;;;;;15.02;8.98;;;;;;;10.14;100.00;100587.72;5080819;28;20063;-62
2022/04/05 09:41:48;;;;;;;19.42;10.25;;;;;;;10.20;100.00;100589.53;5082077;28;20040;-62
2022/04/05 09:44:28;;;;;;;14.75;9.13;;;;;;;10.32;100.00;100586.84;5080549;28;20539;-62
2022/04/05 09:47:08;;;;;;;16.25;11.10;;;;;;;10.40;100.00;100597.50;5113864;27;20120;-62
2022/04/05 09:49:35;;;;;;;17.30;9.60;;;;;;;10.59;100.00;100598.22;5080335;28;20534;-62
2022/04/05 09:52:01;;;;;;;15.70;10.25;;;;;;;10.74;100.00;100595.84;5075986;28;20028;-62
2022/04/05 09:54:29;;;;;;;15.10;8.77;;;;;;;10.82;100.00;100590.00;5080791;28;20024;-62
2022/04/05 09:57:01;;;;;;;13.90;9.07;;;;;;;10.81;100.00;100593.00;5080556;28;20148;-62
2022/04/05 09:59:38;;;;;;;14.68;9.30;;;;;;;10.70;100.00;100589.16;5066812;28;20421;-62
2022/04/05 10:02:09;;;;;;;14.27;8.65;;;;;;;10.60;100.00;100588.94;5077961;28;20453;-63
2022/04/05 10:04:35;;;;;;;12.20;8.85;;;;;;;10.57;100.00;100587.47;5071922;28;20114;-62
2022/04/05 10:07:03;;;;;;;13.73;8.55;;;;;;;10.59;100.00;100593.59;5074815;28;20036;-62
2022/04/05 10:09:28;;;;;;;14.15;8.23;;;;;;;10.59;100.00;100593.59;5069264;28;20047;-62
2022/04/05 10:11:56;;;;;;;14.27;7.88;;;;;;;10.48;100.00;100597.13;5068857;28;20052;-62
2022/04/05 10:14:21;;;;;;;14.75;8.27;;;;;;;10.59;100.00;100603.69;5071945;28;20025;-62
2022/04/05 10:16:49;;;;;;;14.63;9.35;;;;;;;10.46;100.00;100607.53;5065627;28;20063;-62
2022/04/05 10:19:15;;;;;;;14.57;8.45;;;;;;;10.41;100.00;100607.38;5078190;28;20073;-63
2022/04/05 10:21:44;;;;;;;14.05;8.63;;;;;;;10.44;100.00;100609.69;5074387;28;20025;-62
2022/04/05 10:24:11;;;;;;;14.18;8.90;;;;;;;10.46;100.00;100603.94;5065832;28;20043;-62
2022/04/05 10:26:39;;;;;;;14.27;8.57;;;;;;;10.45;100.00;100607.75;5076443;28;20036;-62
2022/04/05 10:29:07;;;;;;;12.68;8.20;;;;;;;10.39;100.00;100615.88;5068313;28;20062;-62
2022/04/05 10:31:32;;;;;;;;;;;;;;;10.43;100.00;100609.88;5073081;28;20020;-62
2022/04/05 10:34:25;;;;;;;13.00;8.00;;;;;;;10.45;100.00;100607.75;5086782;28;19912;-62
2022/04/05 10:37:07;;;;;;;14.02;7.63;;;;;;;10.44;100.00;100606.06;5084231;28;20044;-62
2022/04/05 10:39:33;;;;;;;10.77;8.13;;;;;;;10.48;100.00;100596.28;5086332;28;20047;-62
2022/04/05 10:42:11;;;;;;;13.15;8.18;;;;;;;10.58;100.00;100607.53;5085559;28;20025;-67
2022/04/05 10:44:38;;;;;;;13.45;8.63;;;;;;;10.60;100.00;100599.91;5085898;28;20020;-62
2022/04/05 10:47:06;;;;;;;15.52;9.40;;;;;;;10.61;100.00;100601.56;5082959;28;20125;-62
2022/04/05 10:50:14;;;;;;;14.07;8.07;;;;;;;10.74;100.00;100595.00;5086163;28;20027;-62
2022/04/05 10:52:39;;;;;;;13.10;8.07;;;;;;;10.82;100.00;100597.41;5085555;28;20036;-62
2022/04/05 10:55:08;;;;;;;14.25;7.45;;;;;;;10.83;100.00;100599.91;5074366;28;20140;-62
2022/04/05 10:57:37;;;;;;;13.82;8.48;;;;;;;10.83;100.00;100604.56;5067394;28;20150;-63
2022/04/05 11:00:19;;;;;;;17.00;8.40;;;;;;;10.86;99.40;100599.44;5071795;28;20032;-62
2022/04/05 11:02:45;;;;;;;11.52;7.25;;;;;;;10.78;98.61;100596.22;5083433;28;20082;-62
2022/04/05 11:05:19;;;;;;;12.82;7.45;;;;;;;10.73;99.32;100605.16;5085613;28;20118;-63
2022/04/05 11:07:53;;;;;;;13.25;8.15;;;;;;;10.91;100.00;100591.31;5084268;28;20410;-62